sensor_id;sensor_type;location;lat;lon;timestamp;pressure;altitude;pressure_sealevel;temperature;humidity
68628;BME280;55611;48.602;9.490;2023-02-27T00:00:52;97210;;;1.3;57.5
68628;BME280;55611;48.602;9.490;2023-02-27T00:05:53;97210;;;1.4;57.5
68628;BME280;55611;48.602;9.490;2023-02-27T00:08:24;97210;;;1.4;57.5
68628;BME280;55611;48.602;9.490;2023-02-27T00:10:54;97200;;;1.4;57.5
68628;BME280;55611;48.602;9.490;2023-02-27T00:13:25;97210;;;1.4;57.5
68628;BME280;55611;48.602;9.490;2023-02-27T00:15:56;97200;;;1.4;57
68628;BME280;55611;48.602;9.490;2023-02-27T00:18:27;97200;;;1.4;57
68628;BME280;55611;48.602;9.490;2023-02-27T00:20:58;97200;;;1.3;57
68628;BME280;55611;48.602;9.490;2023-02-27T00:23:28;97200;;;1.3;57
68628;BME280;55611;48.602;9.490;2023-02-27T00:25:59;97200;;;1.3;57
68628;BME280;55611;48.602;9.490;2023-02-27T00:28:30;97200;;;1.3;57
68628;BME280;55611;48.602;9.490;2023-02-27T00:31:01;97190;;;1.3;57
68628;BME280;55611;48.602;9.490;2023-02-27T00:33:31;97190;;;1.3;57
68628;BME280;55611;48.602;9.490;2023-02-27T00:36:02;97200;;;1.2;57
68628;BME280;55611;48.602;9.490;2023-02-27T00:38:33;97200;;;1.2;57
68628;BME280;55611;48.602;9.490;2023-02-27T00:41:04;97200;;;1.2;57
68628;BME280;55611;48.602;9.490;2023-02-27T00:43:35;97200;;;1.2;57
68628;BME280;55611;48.602;9.490;2023-02-27T00:46:05;97210;;;1.2;57
68628;BME280;55611;48.602;9.490;2023-02-27T00:48:36;97210;;;1.2;57
68628;BME280;55611;48.602;9.490;2023-02-27T00:51:07;97210;;;1.1;57
68628;BME280;55611;48.602;9.490;2023-02-27T00:58:38;97200;;;1.1;57
68628;BME280;55611;48.602;9.490;2023-02-27T01:01:09;97190;;;1.1;57
68628;BME280;55611;48.602;9.490;2023-02-27T01:03:40;97190;;;1.1;57
68628;BME280;55611;48.602;9.490;2023-02-27T01:06:10;97190;;;1.1;57
68628;BME280;55611;48.602;9.490;2023-02-27T01:08:41;97190;;;1.1;57
68628;BME280;55611;48.602;9.490;2023-02-27T01:11:12;97200;;;1;57
68628;BME280;55611;48.602;9.490;2023-02-27T01:13:43;97200;;;0.9;57
68628;BME280;55611;48.602;9.490;2023-02-27T01:16:13;97200;;;1;57
68628;BME280;55611;48.602;9.490;2023-02-27T01:18:44;97200;;;0.9;57
68628;BME280;55611;48.602;9.490;2023-02-27T01:21:15;97200;;;0.9;57
68628;BME280;55611;48.602;9.490;2023-02-27T01:23:46;97200;;;0.9;57
68628;BME280;55611;48.602;9.490;2023-02-27T01:26:17;97200;;;0.9;57
68628;BME280;55611;48.602;9.490;2023-02-27T01:28:47;97200;;;1;57
68628;BME280;55611;48.602;9.490;2023-02-27T01:31:18;97200;;;0.9;57
68628;BME280;55611;48.602;9.490;2023-02-27T01:33:49;97190;;;0.9;57
68628;BME280;55611;48.602;9.490;2023-02-27T01:36:20;97200;;;0.9;57
68628;BME280;55611;48.602;9.490;2023-02-27T01:38:50;97190;;;0.9;57
68628;BME280;55611;48.602;9.490;2023-02-27T01:41:21;97200;;;1;57
68628;BME280;55611;48.602;9.490;2023-02-27T01:43:54;97190;;;1;57
68628;BME280;55611;48.602;9.490;2023-02-27T01:46:23;97200;;;0.9;57
68628;BME280;55611;48.602;9.490;2023-02-27T01:48:55;97190;;;0.9;57
68628;BME280;55611;48.602;9.490;2023-02-27T01:51:25;97190;;;0.9;57
68628;BME280;55611;48.602;9.490;2023-02-27T01:53:55;97190;;;0.9;57
68628;BME280;55611;48.602;9.490;2023-02-27T01:56:27;97190;;;0.8;57
68628;BME280;55611;48.602;9.490;2023-02-27T01:59:05;97190;;;0.8;57
68628;BME280;55611;48.602;9.490;2023-02-27T02:01:28;97190;;;0.7;57.5
68628;BME280;55611;48.602;9.490;2023-02-27T02:03:59;97190;;;0.8;57.5
68628;BME280;55611;48.602;9.490;2023-02-27T02:09:00;97180;;;0.8;57
68628;BME280;55611;48.602;9.490;2023-02-27T02:11:31;97190;;;0.8;57
68628;BME280;55611;48.602;9.490;2023-02-27T02:16:36;97180;;;0.7;57
68628;BME280;55611;48.602;9.490;2023-02-27T02:21:41;97180;;;0.7;57.5
68628;BME280;55611;48.602;9.490;2023-02-27T02:25:12;97180;;;0.7;57.5
68628;BME280;55611;48.602;9.490;2023-02-27T02:26:37;97180;;;0.7;57.5
68628;BME280;55611;48.602;9.490;2023-02-27T02:34:18;97180;;;0.7;57
68628;BME280;55611;48.602;9.490;2023-02-27T02:36:44;97180;;;0.6;57
68628;BME280;55611;48.602;9.490;2023-02-27T02:42:13;97180;;;0.7;57
68628;BME280;55611;48.602;9.490;2023-02-27T02:44:19;97170;;;0.6;57.5
68628;BME280;55611;48.602;9.490;2023-02-27T02:49:16;97170;;;0.6;57
68628;BME280;55611;48.602;9.490;2023-02-27T02:51:47;97180;;;0.6;57
68628;BME280;55611;48.602;9.490;2023-02-27T02:54:15;97180;;;0.6;57
68628;BME280;55611;48.602;9.490;2023-02-27T02:56:52;97180;;;0.7;57.5
68628;BME280;55611;48.602;9.490;2023-02-27T02:59:15;97180;;;0.7;57.5
68628;BME280;55611;48.602;9.490;2023-02-27T03:01:45;97180;;;0.8;57.5
68628;BME280;55611;48.602;9.490;2023-02-27T03:09:32;97180;;;0.8;57.5
68628;BME280;55611;48.602;9.490;2023-02-27T03:11:54;97180;;;0.8;57.5
68628;BME280;55611;48.602;9.490;2023-02-27T03:16:50;97190;;;0.8;57.5
68628;BME280;55611;48.602;9.490;2023-02-27T03:19:21;97180;;;0.9;57.5
68628;BME280;55611;48.602;9.490;2023-02-27T03:21:52;97190;;;0.9;57.5
68628;BME280;55611;48.602;9.490;2023-02-27T03:24:24;97190;;;0.9;57.5
68628;BME280;55611;48.602;9.490;2023-02-27T03:26:52;97190;;;1;57.5
68628;BME280;55611;48.602;9.490;2023-02-27T03:29:25;97180;;;1;57.5
68628;BME280;55611;48.602;9.490;2023-02-27T03:31:55;97190;;;1;57.5
68628;BME280;55611;48.602;9.490;2023-02-27T03:36:59;97180;;;1;57.5
68628;BME280;55611;48.602;9.490;2023-02-27T03:39:28;97180;;;1;57.5
68628;BME280;55611;48.602;9.490;2023-02-27T03:46:58;97190;;;0.9;57.5
68628;BME280;55611;48.602;9.490;2023-02-27T03:49:28;97190;;;1;58
68628;BME280;55611;48.602;9.490;2023-02-27T03:51:59;97190;;;1;58
68628;BME280;55611;48.602;9.490;2023-02-27T03:54:31;97190;;;1;58
68628;BME280;55611;48.602;9.490;2023-02-27T03:57:02;97190;;;1;58
68628;BME280;55611;48.602;9.490;2023-02-27T04:02:02;97210;;;1.1;58
68628;BME280;55611;48.602;9.490;2023-02-27T04:04:32;97210;;;1;57.5
68628;BME280;55611;48.602;9.490;2023-02-27T04:07:12;97220;;;1;57.5
68628;BME280;55611;48.602;9.490;2023-02-27T04:12:12;97210;;;1;57.5
68628;BME280;55611;48.602;9.490;2023-02-27T04:19:47;97220;;;0.9;57.5
68628;BME280;55611;48.602;9.490;2023-02-27T04:22:12;97220;;;0.8;57.5
68628;BME280;55611;48.602;9.490;2023-02-27T04:24:56;97220;;;0.8;57.5
68628;BME280;55611;48.602;9.490;2023-02-27T04:29:44;97220;;;0.8;57.5
68628;BME280;55611;48.602;9.490;2023-02-27T04:32:13;97220;;;0.7;57.5
68628;BME280;55611;48.602;9.490;2023-02-27T04:34:42;97220;;;0.7;57.5
68628;BME280;55611;48.602;9.490;2023-02-27T04:37:15;97220;;;0.6;57.5
68628;BME280;55611;48.602;9.490;2023-02-27T04:39:44;97230;;;0.5;57.5
68628;BME280;55611;48.602;9.490;2023-02-27T04:42:14;97230;;;0.5;57.5
68628;BME280;55611;48.602;9.490;2023-02-27T04:44:44;97230;;;0.4;57.5
68628;BME280;55611;48.602;9.490;2023-02-27T04:47:15;97230;;;0.3;57.5
68628;BME280;55611;48.602;9.490;2023-02-27T04:49:47;97230;;;0.2;57.5
68628;BME280;55611;48.602;9.490;2023-02-27T04:52:19;97220;;;0.2;57.5
68628;BME280;55611;48.602;9.490;2023-02-27T04:54:50;97230;;;0.2;57.5
68628;BME280;55611;48.602;9.490;2023-02-27T04:57:19;97240;;;0.2;57.5
68628;BME280;55611;48.602;9.490;2023-02-27T04:59:50;97230;;;0.2;57.5
68628;BME280;55611;48.602;9.490;2023-02-27T05:02:22;97230;;;0.2;57.5
68628;BME280;55611;48.602;9.490;2023-02-27T05:04:51;97240;;;0.2;57.5
68628;BME280;55611;48.602;9.490;2023-02-27T05:07:23;97230;;;0.2;57.5
68628;BME280;55611;48.602;9.490;2023-02-27T05:09:53;97230;;;0.2;57.5
68628;BME280;55611;48.602;9.490;2023-02-27T05:12:25;97240;;;0.2;57.5
68628;BME280;55611;48.602;9.490;2023-02-27T05:17:27;97240;;;0.1;57.5
68628;BME280;55611;48.602;9.490;2023-02-27T05:19:54;97240;;;0.1;57.5
68628;BME280;55611;48.602;9.490;2023-02-27T05:22:27;97240;;;0.1;57.5
68628;BME280;55611;48.602;9.490;2023-02-27T05:24:58;97240;;;0.2;57.5
68628;BME280;55611;48.602;9.490;2023-02-27T05:27:29;97240;;;0.1;57.5
68628;BME280;55611;48.602;9.490;2023-02-27T05:30:07;97250;;;0.1;57.5
68628;BME280;55611;48.602;9.490;2023-02-27T05:32:31;97250;;;0.1;57.5
68628;BME280;55611;48.602;9.490;2023-02-27T05:35:05;97250;;;0.1;57.5
68628;BME280;55611;48.602;9.490;2023-02-27T05:37:31;97250;;;0;57.5
68628;BME280;55611;48.602;9.490;2023-02-27T05:40:02;97240;;;0.1;57.5
68628;BME280;55611;48.602;9.490;2023-02-27T05:42:33;97240;;;0;57.5
68628;BME280;55611;48.602;9.490;2023-02-27T05:45:10;97250;;;0;57.5
68628;BME280;55611;48.602;9.490;2023-02-27T05:47:33;97250;;;0;57.5
68628;BME280;55611;48.602;9.490;2023-02-27T05:50:06;97250;;;0;57.5
68628;BME280;55611;48.602;9.490;2023-02-27T05:52:34;97250;;;0;57.5
68628;BME280;55611;48.602;9.490;2023-02-27T05:55:07;97250;;;0;57.5
68628;BME280;55611;48.602;9.490;2023-02-27T05:57:41;97260;;;0;57.5
68628;BME280;55611;48.602;9.490;2023-02-27T06:00:09;97260;;;0;57.5
68628;BME280;55611;48.602;9.490;2023-02-27T06:02:38;97260;;;0;57.5
68628;BME280;55611;48.602;9.490;2023-02-27T06:05:08;97260;;;0;57.5
68628;BME280;55611;48.602;9.490;2023-02-27T06:07:39;97260;;;0;57.5
68628;BME280;55611;48.602;9.490;2023-02-27T06:10:11;97260;;;0;57.5
68628;BME280;55611;48.602;9.490;2023-02-27T06:12:40;97260;;;0;57.5
68628;BME280;55611;48.602;9.490;2023-02-27T06:15:12;97260;;;0;57.5
68628;BME280;55611;48.602;9.490;2023-02-27T06:17:42;97260;;;0;57.5
68628;BME280;55611;48.602;9.490;2023-02-27T06:20:13;97260;;;0;57.5
68628;BME280;55611;48.602;9.490;2023-02-27T06:22:44;97270;;;0;57.5
68628;BME280;55611;48.602;9.490;2023-02-27T06:25:14;97260;;;0;57.5
68628;BME280;55611;48.602;9.490;2023-02-27T06:30:15;97270;;;0;57.5
68628;BME280;55611;48.602;9.490;2023-02-27T06:35:16;97280;;;0;57.5
68628;BME280;55611;48.602;9.490;2023-02-27T06:37:47;97280;;;0;57.5
68628;BME280;55611;48.602;9.490;2023-02-27T06:40:18;97290;;;0;57.5
68628;BME280;55611;48.602;9.490;2023-02-27T06:42:49;97290;;;0;57.5
68628;BME280;55611;48.602;9.490;2023-02-27T06:45:19;97280;;;0;57.5
68628;BME280;55611;48.602;9.490;2023-02-27T06:47:50;97290;;;0;57.5
68628;BME280;55611;48.602;9.490;2023-02-27T06:50:21;97290;;;0.1;57.5
68628;BME280;55611;48.602;9.490;2023-02-27T06:52:52;97290;;;0;57.5
68628;BME280;55611;48.602;9.490;2023-02-27T06:55:22;97290;;;0.1;57.5
68628;BME280;55611;48.602;9.490;2023-02-27T06:57:53;97290;;;0.2;57.5
68628;BME280;55611;48.602;9.490;2023-02-27T07:00:24;97290;;;0.3;57.5
68628;BME280;55611;48.602;9.490;2023-02-27T07:05:26;97290;;;0.4;57.5
68628;BME280;55611;48.602;9.490;2023-02-27T07:07:56;97300;;;0.5;57.5
68628;BME280;55611;48.602;9.490;2023-02-27T07:10:27;97290;;;0.6;57.5
68628;BME280;55611;48.602;9.490;2023-02-27T07:12:58;97290;;;0.7;57.5
68628;BME280;55611;48.602;9.490;2023-02-27T07:15:29;97290;;;0.7;57.5
68628;BME280;55611;48.602;9.490;2023-02-27T07:17:59;97290;;;0.8;57.5
68628;BME280;55611;48.602;9.490;2023-02-27T07:20:30;97290;;;0.8;57.5
68628;BME280;55611;48.602;9.490;2023-02-27T07:23:01;97300;;;0.8;57.5
68628;BME280;55611;48.602;9.490;2023-02-27T07:25:32;97300;;;0.8;57.5
68628;BME280;55611;48.602;9.490;2023-02-27T07:28:03;97300;;;0.9;58
68628;BME280;55611;48.602;9.490;2023-02-27T07:30:33;97300;;;1;58
68628;BME280;55611;48.602;9.490;2023-02-27T07:33:04;97300;;;1.1;58
68628;BME280;55611;48.602;9.490;2023-02-27T07:35:35;97300;;;1.2;58
68628;BME280;55611;48.602;9.490;2023-02-27T07:38:06;97300;;;1.2;58
68628;BME280;55611;48.602;9.490;2023-02-27T07:40:36;97310;;;1.3;58
68628;BME280;55611;48.602;9.490;2023-02-27T07:43:08;97310;;;1.3;58
68628;BME280;55611;48.602;9.490;2023-02-27T07:45:38;97300;;;1.4;58.5
68628;BME280;55611;48.602;9.490;2023-02-27T07:48:09;97310;;;1.4;58.5
68628;BME280;55611;48.602;9.490;2023-02-27T07:50:39;97320;;;1.4;58.5
68628;BME280;55611;48.602;9.490;2023-02-27T07:53:10;97310;;;1.6;58.5
68628;BME280;55611;48.602;9.490;2023-02-27T07:55:41;97310;;;1.6;58.5
68628;BME280;55611;48.602;9.490;2023-02-27T07:58:12;97310;;;1.7;58.5
68628;BME280;55611;48.602;9.490;2023-02-27T08:00:43;97310;;;1.8;58.5
68628;BME280;55611;48.602;9.490;2023-02-27T08:03:13;97310;;;1.9;58.5
68628;BME280;55611;48.602;9.490;2023-02-27T08:05:44;97310;;;1.9;58.5
68628;BME280;55611;48.602;9.490;2023-02-27T08:08:15;97310;;;2;58.5
68628;BME280;55611;48.602;9.490;2023-02-27T08:10:46;97320;;;2;58.5
68628;BME280;55611;48.602;9.490;2023-02-27T08:15:47;97310;;;2.1;58.5
68628;BME280;55611;48.602;9.490;2023-02-27T08:18:17;97310;;;2.1;58.5
68628;BME280;55611;48.602;9.490;2023-02-27T08:20:48;97320;;;2.3;58.5
68628;BME280;55611;48.602;9.490;2023-02-27T08:23:19;97310;;;2.4;58.5
68628;BME280;55611;48.602;9.490;2023-02-27T08:25:50;97320;;;2.4;58.5
68628;BME280;55611;48.602;9.490;2023-02-27T08:28:20;97320;;;2.5;58.5
68628;BME280;55611;48.602;9.490;2023-02-27T08:30:51;97320;;;2.5;58.5
68628;BME280;55611;48.602;9.490;2023-02-27T08:33:22;97320;;;2.5;58.5
68628;BME280;55611;48.602;9.490;2023-02-27T08:35:53;97320;;;2.6;58.5
68628;BME280;55611;48.602;9.490;2023-02-27T08:38:24;97320;;;2.7;58.5
68628;BME280;55611;48.602;9.490;2023-02-27T08:40:54;97320;;;2.8;58.5
68628;BME280;55611;48.602;9.490;2023-02-27T08:43:25;97320;;;2.9;58.5
68628;BME280;55611;48.602;9.490;2023-02-27T08:45:56;97320;;;2.9;58.5
68628;BME280;55611;48.602;9.490;2023-02-27T08:48:27;97320;;;3;59
68628;BME280;55611;48.602;9.490;2023-02-27T08:50:57;97310;;;3;59
68628;BME280;55611;48.602;9.490;2023-02-27T08:53:28;97320;;;3.1;59
68628;BME280;55611;48.602;9.490;2023-02-27T08:55:59;97320;;;3.2;59
68628;BME280;55611;48.602;9.490;2023-02-27T08:58:30;97320;;;3.3;59
68628;BME280;55611;48.602;9.490;2023-02-27T09:01:01;97320;;;3.4;59
68628;BME280;55611;48.602;9.490;2023-02-27T09:03:31;97320;;;3.4;59
68628;BME280;55611;48.602;9.490;2023-02-27T09:06:02;97320;;;3.5;59
68628;BME280;55611;48.602;9.490;2023-02-27T09:08:33;97320;;;3.5;59
68628;BME280;55611;48.602;9.490;2023-02-27T09:11:04;97330;;;3.6;59
68628;BME280;55611;48.602;9.490;2023-02-27T09:13:34;97320;;;3.6;59
68628;BME280;55611;48.602;9.490;2023-02-27T09:16:05;97330;;;3.7;59
68628;BME280;55611;48.602;9.490;2023-02-27T09:18:36;97320;;;3.8;58.5
68628;BME280;55611;48.602;9.490;2023-02-27T09:21:07;97330;;;3.8;59
68628;BME280;55611;48.602;9.490;2023-02-27T09:23:38;97330;;;3.9;58.5
68628;BME280;55611;48.602;9.490;2023-02-27T09:26:08;97330;;;4;58.5
68628;BME280;55611;48.602;9.490;2023-02-27T09:28:39;97330;;;3.9;59
68628;BME280;55611;48.602;9.490;2023-02-27T09:31:10;97330;;;4;59
68628;BME280;55611;48.602;9.490;2023-02-27T09:33:41;97330;;;4;59
68628;BME280;55611;48.602;9.490;2023-02-27T09:36:12;97330;;;4.1;59
68628;BME280;55611;48.602;9.490;2023-02-27T09:38:42;97330;;;4.2;58.5
68628;BME280;55611;48.602;9.490;2023-02-27T09:41:20;97330;;;4.1;59
68628;BME280;55611;48.602;9.490;2023-02-27T09:43:46;97340;;;4.1;59
68628;BME280;55611;48.602;9.490;2023-02-27T09:46:17;97330;;;4.3;58.5
68628;BME280;55611;48.602;9.490;2023-02-27T09:48:46;97330;;;4.4;58.5
68628;BME280;55611;48.602;9.490;2023-02-27T09:51:16;97330;;;4.4;58.5
68628;BME280;55611;48.602;9.490;2023-02-27T09:53:48;97340;;;4.4;58.5
68628;BME280;55611;48.602;9.490;2023-02-27T09:56:20;97340;;;4.5;58.5
68628;BME280;55611;48.602;9.490;2023-02-27T09:58:50;97340;;;4.5;58.5
68628;BME280;55611;48.602;9.490;2023-02-27T10:01:22;97350;;;4.6;58.5
68628;BME280;55611;48.602;9.490;2023-02-27T10:03:56;97340;;;4.6;58.5
68628;BME280;55611;48.602;9.490;2023-02-27T10:06:24;97340;;;4.5;58.5
68628;BME280;55611;48.602;9.490;2023-02-27T10:11:23;97340;;;4.5;58.5
68628;BME280;55611;48.602;9.490;2023-02-27T10:13:56;97350;;;4.6;58.5
68628;BME280;55611;48.602;9.490;2023-02-27T10:16:23;97340;;;4.6;58.5
68628;BME280;55611;48.602;9.490;2023-02-27T10:18:55;97340;;;4.7;58.5
68628;BME280;55611;48.602;9.490;2023-02-27T10:21:29;97360;;;4.6;58.5
68628;BME280;55611;48.602;9.490;2023-02-27T10:23:58;97350;;;4.7;58.5
68628;BME280;55611;48.602;9.490;2023-02-27T10:26:28;97370;;;4.7;58.5
68628;BME280;55611;48.602;9.490;2023-02-27T10:28:57;97350;;;4.7;58.5
68628;BME280;55611;48.602;9.490;2023-02-27T10:31:29;97370;;;4.7;58.5
68628;BME280;55611;48.602;9.490;2023-02-27T10:33:59;97360;;;4.6;58.5
68628;BME280;55611;48.602;9.490;2023-02-27T10:39:03;97370;;;4.6;58.5
68628;BME280;55611;48.602;9.490;2023-02-27T10:41:30;97370;;;4.6;58.5
68628;BME280;55611;48.602;9.490;2023-02-27T10:44:01;97380;;;4.7;58.5
68628;BME280;55611;48.602;9.490;2023-02-27T10:46:33;97380;;;4.6;58.5
68628;BME280;55611;48.602;9.490;2023-02-27T10:49:19;97380;;;4.6;58.5
68628;BME280;55611;48.602;9.490;2023-02-27T10:51:34;97380;;;4.7;58.5
68628;BME280;55611;48.602;9.490;2023-02-27T10:54:12;97390;;;4.8;58.5
68628;BME280;55611;48.602;9.490;2023-02-27T10:56:35;97380;;;4.9;58.5
68628;BME280;55611;48.602;9.490;2023-02-27T10:59:09;97390;;;4.9;58.5
68628;BME280;55611;48.602;9.490;2023-02-27T11:01:41;97390;;;4.8;58.5
68628;BME280;55611;48.602;9.490;2023-02-27T11:06:38;97390;;;4.9;58.5
68628;BME280;55611;48.602;9.490;2023-02-27T11:09:09;97380;;;4.9;58.5
68628;BME280;55611;48.602;9.490;2023-02-27T11:11:39;97380;;;4.8;58.5
68628;BME280;55611;48.602;9.490;2023-02-27T11:15:20;97380;;;4.8;58.5
68628;BME280;55611;48.602;9.490;2023-02-27T11:16:44;97380;;;4.8;58.5
68628;BME280;55611;48.602;9.490;2023-02-27T11:19:22;97380;;;4.9;58
68628;BME280;55611;48.602;9.490;2023-02-27T11:21:42;97380;;;4.9;58
68628;BME280;55611;48.602;9.490;2023-02-27T11:24:17;97380;;;4.8;58
68628;BME280;55611;48.602;9.490;2023-02-27T11:27:47;97380;;;5;58
68628;BME280;55611;48.602;9.490;2023-02-27T11:29:16;97370;;;5.2;58
68628;BME280;55611;48.602;9.490;2023-02-27T11:31:47;97360;;;5.3;58.5
68628;BME280;55611;48.602;9.490;2023-02-27T11:34:17;97370;;;5.4;58.5
68628;BME280;55611;48.602;9.490;2023-02-27T11:36:47;97370;;;5.4;58.5
68628;BME280;55611;48.602;9.490;2023-02-27T11:39:19;97360;;;5.4;58.5
68628;BME280;55611;48.602;9.490;2023-02-27T11:41:49;97360;;;5.5;58.5
68628;BME280;55611;48.602;9.490;2023-02-27T11:44:20;97360;;;5.5;58.5
68628;BME280;55611;48.602;9.490;2023-02-27T11:46:50;97360;;;5.4;58.5
68628;BME280;55611;48.602;9.490;2023-02-27T11:49:27;97360;;;5.3;58.5
68628;BME280;55611;48.602;9.490;2023-02-27T11:54:53;97360;;;5.3;58.5
68628;BME280;55611;48.602;9.490;2023-02-27T11:56:53;97370;;;5.4;58.5
68628;BME280;55611;48.602;9.490;2023-02-27T11:59:26;97370;;;5.4;58.5
68628;BME280;55611;48.602;9.490;2023-02-27T12:01:56;97360;;;5.4;58
68628;BME280;55611;48.602;9.490;2023-02-27T12:07:01;97360;;;5.6;58
68628;BME280;55611;48.602;9.490;2023-02-27T12:11:56;97360;;;5.6;58
68628;BME280;55611;48.602;9.490;2023-02-27T12:14:31;97350;;;5.6;58
68628;BME280;55611;48.602;9.490;2023-02-27T12:17:01;97350;;;5.7;58
68628;BME280;55611;48.602;9.490;2023-02-27T12:19:32;97350;;;5.8;58
68628;BME280;55611;48.602;9.490;2023-02-27T12:22:02;97340;;;5.7;58
68628;BME280;55611;48.602;9.490;2023-02-27T12:24:46;97340;;;5.6;58
68628;BME280;55611;48.602;9.490;2023-02-27T12:27:08;97340;;;5.6;58
68628;BME280;55611;48.602;9.490;2023-02-27T12:29:33;97340;;;5.6;58
68628;BME280;55611;48.602;9.490;2023-02-27T12:32:07;97340;;;5.6;58
68628;BME280;55611;48.602;9.490;2023-02-27T12:34:37;97350;;;5.6;58
68628;BME280;55611;48.602;9.490;2023-02-27T12:37:07;97340;;;5.5;58
68628;BME280;55611;48.602;9.490;2023-02-27T12:42:10;97340;;;5.6;57.5
68628;BME280;55611;48.602;9.490;2023-02-27T12:44:48;97340;;;5.6;57.5
68628;BME280;55611;48.602;9.490;2023-02-27T12:52:12;97340;;;5.8;58
68628;BME280;55611;48.602;9.490;2023-02-27T12:54:51;97340;;;5.8;58
68628;BME280;55611;48.602;9.490;2023-02-27T12:57:15;97330;;;5.8;58
68628;BME280;55611;48.602;9.490;2023-02-27T12:59:46;97330;;;5.8;58
68628;BME280;55611;48.602;9.490;2023-02-27T13:02:29;97340;;;5.8;58
68628;BME280;55611;48.602;9.490;2023-02-27T13:04:44;97340;;;5.7;58
68628;BME280;55611;48.602;9.490;2023-02-27T13:07:20;97340;;;5.7;58
68628;BME280;55611;48.602;9.490;2023-02-27T13:17:17;97340;;;5.7;58
68628;BME280;55611;48.602;9.490;2023-02-27T13:19:49;97330;;;5.7;57.5
68628;BME280;55611;48.602;9.490;2023-02-27T13:24:49;97330;;;5.6;57.5
68628;BME280;55611;48.602;9.490;2023-02-27T13:27:27;97320;;;5.6;57.5
68628;BME280;55611;48.602;9.490;2023-02-27T13:29:54;97330;;;5.6;57.5
68628;BME280;55611;48.602;9.490;2023-02-27T13:32:23;97330;;;5.6;57.5
68628;BME280;55611;48.602;9.490;2023-02-27T13:34:52;97330;;;5.6;57.5
68628;BME280;55611;48.602;9.490;2023-02-27T13:37:22;97320;;;5.7;57.5
68628;BME280;55611;48.602;9.490;2023-02-27T13:39:53;97320;;;5.8;57.5
68628;BME280;55611;48.602;9.490;2023-02-27T13:42:48;97320;;;5.9;57.5
68628;BME280;55611;48.602;9.490;2023-02-27T13:52:27;97330;;;5.8;57.5
68628;BME280;55611;48.602;9.490;2023-02-27T13:54:56;97330;;;5.8;57.5
68628;BME280;55611;48.602;9.490;2023-02-27T13:57:30;97320;;;5.8;57.5
68628;BME280;55611;48.602;9.490;2023-02-27T13:59:59;97320;;;5.8;57.5
68628;BME280;55611;48.602;9.490;2023-02-27T14:02:32;97330;;;6;57.5
68628;BME280;55611;48.602;9.490;2023-02-27T14:05:00;97320;;;6.2;57.5
68628;BME280;55611;48.602;9.490;2023-02-27T14:07:32;97320;;;6.3;57.5
68628;BME280;55611;48.602;9.490;2023-02-27T14:10:02;97330;;;6.4;57.5
68628;BME280;55611;48.602;9.490;2023-02-27T14:12:33;97320;;;6.4;57.5
68628;BME280;55611;48.602;9.490;2023-02-27T14:15:04;97330;;;6.2;58
68628;BME280;55611;48.602;9.490;2023-02-27T14:17:40;97330;;;6.1;58
68628;BME280;55611;48.602;9.490;2023-02-27T14:20:10;97320;;;6.1;58
68628;BME280;55611;48.602;9.490;2023-02-27T14:22:37;97330;;;6;57.5
68628;BME280;55611;48.602;9.490;2023-02-27T14:27:47;97320;;;6;57.5
68628;BME280;55611;48.602;9.490;2023-02-27T14:30:17;97330;;;6;57.5
68628;BME280;55611;48.602;9.490;2023-02-27T14:35:09;97330;;;5.7;57.5
68628;BME280;55611;48.602;9.490;2023-02-27T14:37:39;97320;;;5.6;57.5
68628;BME280;55611;48.602;9.490;2023-02-27T14:40:26;97330;;;5.5;57.5
68628;BME280;55611;48.602;9.490;2023-02-27T14:42:47;97330;;;5.4;57.5
68628;BME280;55611;48.602;9.490;2023-02-27T14:45:14;97340;;;5.3;57.5
68628;BME280;55611;48.602;9.490;2023-02-27T14:47:42;97340;;;5.2;57.5
68628;BME280;55611;48.602;9.490;2023-02-27T14:50:44;97340;;;5.3;57.5
68628;BME280;55611;48.602;9.490;2023-02-27T14:52:44;97350;;;5.3;57.5
68628;BME280;55611;48.602;9.490;2023-02-27T14:55:19;97350;;;5.1;57.5
68628;BME280;55611;48.602;9.490;2023-02-27T14:57:54;97350;;;5.1;57.5
68628;BME280;55611;48.602;9.490;2023-02-27T15:01:09;97350;;;5;57.5
68628;BME280;55611;48.602;9.490;2023-02-27T15:02:47;97350;;;5.1;57.5
68628;BME280;55611;48.602;9.490;2023-02-27T15:05:19;97350;;;5;57.5
68628;BME280;55611;48.602;9.490;2023-02-27T15:07:49;97350;;;4.9;57.5
68628;BME280;55611;48.602;9.490;2023-02-27T15:10:22;97360;;;4.8;57.5
68628;BME280;55611;48.602;9.490;2023-02-27T15:12:50;97370;;;4.9;57.5
68628;BME280;55611;48.602;9.490;2023-02-27T15:15:21;97360;;;4.8;57.5
68628;BME280;55611;48.602;9.490;2023-02-27T15:17:52;97360;;;4.9;57.5
68628;BME280;55611;48.602;9.490;2023-02-27T15:20:24;97370;;;5;57
68628;BME280;55611;48.602;9.490;2023-02-27T15:22:53;97370;;;4.9;57
68628;BME280;55611;48.602;9.490;2023-02-27T15:25:25;97370;;;5;57
68628;BME280;55611;48.602;9.490;2023-02-27T15:27:56;97380;;;5;57
68628;BME280;55611;48.602;9.490;2023-02-27T15:32:56;97380;;;4.9;57
68628;BME280;55611;48.602;9.490;2023-02-27T15:35:29;97400;;;4.8;57
68628;BME280;55611;48.602;9.490;2023-02-27T15:37:58;97380;;;4.7;57
68628;BME280;55611;48.602;9.490;2023-02-27T15:40:30;97390;;;4.7;57
68628;BME280;55611;48.602;9.490;2023-02-27T15:42:59;97390;;;4.7;57
68628;BME280;55611;48.602;9.490;2023-02-27T15:45:31;97400;;;4.6;57
68628;BME280;55611;48.602;9.490;2023-02-27T15:48:01;97410;;;4.6;57
68628;BME280;55611;48.602;9.490;2023-02-27T15:50:32;97410;;;4.6;57
68628;BME280;55611;48.602;9.490;2023-02-27T15:53:08;97410;;;4.6;57
68628;BME280;55611;48.602;9.490;2023-02-27T15:55:34;97410;;;4.5;57
68628;BME280;55611;48.602;9.490;2023-02-27T15:58:07;97420;;;4.5;57
68628;BME280;55611;48.602;9.490;2023-02-27T16:00:34;97420;;;4.4;57
68628;BME280;55611;48.602;9.490;2023-02-27T16:03:05;97410;;;4.5;57
68628;BME280;55611;48.602;9.490;2023-02-27T16:05:36;97420;;;4.5;56.5
68628;BME280;55611;48.602;9.490;2023-02-27T16:08:07;97420;;;4.4;56.5
68628;BME280;55611;48.602;9.490;2023-02-27T16:10:41;97430;;;4.4;56.5
68628;BME280;55611;48.602;9.490;2023-02-27T16:13:32;97430;;;4.3;56.5
68628;BME280;55611;48.602;9.490;2023-02-27T16:15:39;97440;;;4.3;56.5
68628;BME280;55611;48.602;9.490;2023-02-27T16:18:23;97440;;;4.3;56.5
68628;BME280;55611;48.602;9.490;2023-02-27T16:20:42;97450;;;4.4;56.5
68628;BME280;55611;48.602;9.490;2023-02-27T16:23:16;97450;;;4.4;56.5
68628;BME280;55611;48.602;9.490;2023-02-27T16:25:57;97450;;;4.4;56.5
68628;BME280;55611;48.602;9.490;2023-02-27T16:28:13;97450;;;4.4;56.5
68628;BME280;55611;48.602;9.490;2023-02-27T16:33:20;97450;;;4.3;56.5
68628;BME280;55611;48.602;9.490;2023-02-27T16:35:45;97450;;;4.2;56.5